Current River (Missouri), Van Buren (07067000)

StateMissouriCurrentGood (1630 cfs)
RiverCurrent RiverFlood - The river is flooding. Obstacles can be treacherous or deadly. The river should be avoided at this stage for casual trips and definitely for the inexperienced. Trips should be attempted only with protective gear and equipment.Flood(none)
Updated2019-10-14 2:30 (1 hour ago)High - The river is high and potentially dangerous, especially for the young and / or inexperienced. Normal stream obstacles are sometimes difficult to navigate. Extended distances can be attempted, but canoe travel may not be advisable.High(none)
Discharge1630 cfs (median: 840 cfs)Good - Conditions are ideal for a canoe or kayak. Boats typically will drag on fewer than one-quarter of riffles, if at all, and portages are unnecessary or rare. Normal float lengths can be attempted without a problem.Good700
Height3.55 feetLow - River is low but can still be floated. Some riffles are okay but most come with significant dragging and might need a portage. Float lengths should be reduced to accommodate low flow, dragging, and portages.Low(none)
TrendFalling (falling over 24 hours)Poor - River is too low to float comfortably. Most or all riffles will drag or must be portaged and some obstacles (such as slick shelf rock) cause undue problems. Avoid the river at this stage for casual paddling trips.Poor(none)
USGSExternal icon USGS Site for Van Buren (07067000)LocationExternal icon Google Maps

Trending Data

Plot Image
ObservationHeightDischargeMaximum
Discharge
Minimum
Discharge
Mean
Discharge
P05P10P20P25P50
(Median)
P75P80P90P95
2019-10-14 02:30 3.55 1630 12900 (1971) 486 (1957) 1140 577 640 683 728 840 1130 1260 1600 2430
2019-10-14 01:30 3.56 1640 12900 (1971) 486 (1957) 1140 577 640 683 728 840 1130 1260 1600 2430
2019-10-14 00:30 3.58 1660 12900 (1971) 486 (1957) 1140 577 640 683 728 840 1130 1260 1600 2430
2019-10-13 23:30 3.58 1660 3860 (1950) 486 (1957) 1030 593 634 690 725 850 1120 1240 1660 2140
2019-10-13 22:30 3.59 1670 3860 (1950) 486 (1957) 1030 593 634 690 725 850 1120 1240 1660 2140
2019-10-13 21:30 3.60 1680 3860 (1950) 486 (1957) 1030 593 634 690 725 850 1120 1240 1660 2140
2019-10-13 20:30 3.62 1700 3860 (1950) 486 (1957) 1030 593 634 690 725 850 1120 1240 1660 2140
2019-10-13 19:30 3.64 1730 3860 (1950) 486 (1957) 1030 593 634 690 725 850 1120 1240 1660 2140
2019-10-13 18:30 3.65 1740 3860 (1950) 486 (1957) 1030 593 634 690 725 850 1120 1240 1660 2140
2019-10-13 17:30 3.67 1760 3860 (1950) 486 (1957) 1030 593 634 690 725 850 1120 1240 1660 2140
2019-10-13 16:30 3.69 1780 3860 (1950) 486 (1957) 1030 593 634 690 725 850 1120 1240 1660 2140
2019-10-13 15:30 3.70 1790 3860 (1950) 486 (1957) 1030 593 634 690 725 850 1120 1240 1660 2140
2019-10-13 14:30 3.71 1800 3860 (1950) 486 (1957) 1030 593 634 690 725 850 1120 1240 1660 2140
2019-10-13 13:30 3.74 1830 3860 (1950) 486 (1957) 1030 593 634 690 725 850 1120 1240 1660 2140
2019-10-13 12:30 3.76 1860 3860 (1950) 486 (1957) 1030 593 634 690 725 850 1120 1240 1660 2140
2019-10-13 11:30 3.77 1870 3860 (1950) 486 (1957) 1030 593 634 690 725 850 1120 1240 1660 2140
2019-10-13 10:30 3.78 1880 3860 (1950) 486 (1957) 1030 593 634 690 725 850 1120 1240 1660 2140
2019-10-13 09:30 3.81 1910 3860 (1950) 486 (1957) 1030 593 634 690 725 850 1120 1240 1660 2140
2019-10-13 08:30 3.83 1930 3860 (1950) 486 (1957) 1030 593 634 690 725 850 1120 1240 1660 2140
2019-10-13 07:30 3.86 1970 3860 (1950) 486 (1957) 1030 593 634 690 725 850 1120 1240 1660 2140
2019-10-13 06:30 3.88 1990 3860 (1950) 486 (1957) 1030 593 634 690 725 850 1120 1240 1660 2140
2019-10-13 05:30 3.88 1990 3860 (1950) 486 (1957) 1030 593 634 690 725 850 1120 1240 1660 2140
2019-10-13 04:30 3.92 2040 3860 (1950) 486 (1957) 1030 593 634 690 725 850 1120 1240 1660 2140
2019-10-13 03:30 3.96 2090 3860 (1950) 486 (1957) 1030 593 634 690 725 850 1120 1240 1660 2140
2019-10-13 02:30 3.98 2100 3860 (1950) 486 (1957) 1030 593 634 690 725 850 1120 1240 1660 2140
2019-10-13 01:30 4.02 2150 3860 (1950) 486 (1957) 1030 593 634 690 725 850 1120 1240 1660 2140
2019-10-13 00:30 4.04 2170 3860 (1950) 486 (1957) 1030 593 634 690 725 850 1120 1240 1660 2140
2019-10-12 23:30 4.06 2200 3950 (1950) 482 (1957) 1010 585 634 693 725 850 1140 1200 1600 1790
2019-10-12 22:30 4.09 2240 3950 (1950) 482 (1957) 1010 585 634 693 725 850 1140 1200 1600 1790
2019-10-12 21:30 4.12 2270 3950 (1950) 482 (1957) 1010 585 634 693 725 850 1140 1200 1600 1790
2019-10-12 20:30 4.14 2300 3950 (1950) 482 (1957) 1010 585 634 693 725 850 1140 1200 1600 1790
2019-10-12 19:30 4.18 2350 3950 (1950) 482 (1957) 1010 585 634 693 725 850 1140 1200 1600 1790
2019-10-12 18:30 4.18 2350 3950 (1950) 482 (1957) 1010 585 634 693 725 850 1140 1200 1600 1790
2019-10-12 17:30 4.18 2350 3950 (1950) 482 (1957) 1010 585 634 693 725 850 1140 1200 1600 1790
2019-10-12 16:30 4.18 2350 3950 (1950) 482 (1957) 1010 585 634 693 725 850 1140 1200 1600 1790
2019-10-12 15:30 4.16 2320 3950 (1950) 482 (1957) 1010 585 634 693 725 850 1140 1200 1600 1790
2019-10-12 14:30 4.11 2260 3950 (1950) 482 (1957) 1010 585 634 693 725 850 1140 1200 1600 1790
2019-10-12 13:30 4.04 2170 3950 (1950) 482 (1957) 1010 585 634 693 725 850 1140 1200 1600 1790
2019-10-12 12:30 3.91 2030 3950 (1950) 482 (1957) 1010 585 634 693 725 850 1140 1200 1600 1790
2019-10-12 11:30 3.86 1970 3950 (1950) 482 (1957) 1010 585 634 693 725 850 1140 1200 1600 1790
2019-10-12 10:30 3.82 1920 3950 (1950) 482 (1957) 1010 585 634 693 725 850 1140 1200 1600 1790
2019-10-12 09:30 3.82 1920 3950 (1950) 482 (1957) 1010 585 634 693 725 850 1140 1200 1600 1790
2019-10-12 08:30 3.81 1910 3950 (1950) 482 (1957) 1010 585 634 693 725 850 1140 1200 1600 1790
2019-10-12 07:30 3.80 1900 3950 (1950) 482 (1957) 1010 585 634 693 725 850 1140 1200 1600 1790
2019-10-12 06:30 3.78 1880 3950 (1950) 482 (1957) 1010 585 634 693 725 850 1140 1200 1600 1790
2019-10-12 05:30 3.77 1870 3950 (1950) 482 (1957) 1010 585 634 693 725 850 1140 1200 1600 1790
2019-10-12 04:30 3.75 1840 3950 (1950) 482 (1957) 1010 585 634 693 725 850 1140 1200 1600 1790
2019-10-12 03:30 3.74 1830 3950 (1950) 482 (1957) 1010 585 634 693 725 850 1140 1200 1600 1790
2019-10-12 02:30 3.71 1800 3950 (1950) 482 (1957) 1010 585 634 693 725 850 1140 1200 1600 1790
2019-10-12 01:30 3.67 1760 3950 (1950) 482 (1957) 1010 585 634 693 725 850 1140 1200 1600 1790
2019-10-12 00:30 3.61 1690 3950 (1950) 482 (1957) 1010 585 634 693 725 850 1140 1200 1600 1790
2019-10-11 23:30 3.57 1650 4620 (2010) 479 (1957) 1020 574 622 684 725 846 1130 1230 1520 2140
2019-10-11 22:30 3.52 1600 4620 (2010) 479 (1957) 1020 574 622 684 725 846 1130 1230 1520 2140
2019-10-11 21:30 3.46 1540 4620 (2010) 479 (1957) 1020 574 622 684 725 846 1130 1230 1520 2140
2019-10-11 20:30 3.41 1490 4620 (2010) 479 (1957) 1020 574 622 684 725 846 1130 1230 1520 2140
2019-10-11 19:30 3.36 1450 4620 (2010) 479 (1957) 1020 574 622 684 725 846 1130 1230 1520 2140
2019-10-11 18:30 3.31 1400 4620 (2010) 479 (1957) 1020 574 622 684 725 846 1130 1230 1520 2140
2019-10-11 17:30 3.26 1350 4620 (2010) 479 (1957) 1020 574 622 684 725 846 1130 1230 1520 2140
2019-10-11 16:30 3.20 1310 4620 (2010) 479 (1957) 1020 574 622 684 725 846 1130 1230 1520 2140
2019-10-11 15:30 3.18 1290 4620 (2010) 479 (1957) 1020 574 622 684 725 846 1130 1230 1520 2140
2019-10-11 14:30 3.15 1260 4620 (2010) 479 (1957) 1020 574 622 684 725 846 1130 1230 1520 2140
2019-10-11 13:30 3.14 1260 4620 (2010) 479 (1957) 1020 574 622 684 725 846 1130 1230 1520 2140
2019-10-11 12:30 3.12 1240 4620 (2010) 479 (1957) 1020 574 622 684 725 846 1130 1230 1520 2140
2019-10-11 11:30 3.12 1240 4620 (2010) 479 (1957) 1020 574 622 684 725 846 1130 1230 1520 2140
2019-10-11 10:30 3.10 1220 4620 (2010) 479 (1957) 1020 574 622 684 725 846 1130 1230 1520 2140
2019-10-11 09:30 3.10 1220 4620 (2010) 479 (1957) 1020 574 622 684 725 846 1130 1230 1520 2140
2019-10-11 08:30 3.09 1210 4620 (2010) 479 (1957) 1020 574 622 684 725 846 1130 1230 1520 2140
2019-10-11 07:30 3.07 1200 4620 (2010) 479 (1957) 1020 574 622 684 725 846 1130 1230 1520 2140
2019-10-11 06:30 3.06 1190 4620 (2010) 479 (1957) 1020 574 622 684 725 846 1130 1230 1520 2140
2019-10-11 05:30 3.06 1190 4620 (2010) 479 (1957) 1020 574 622 684 725 846 1130 1230 1520 2140
2019-10-11 04:30 3.06 1190 4620 (2010) 479 (1957) 1020 574 622 684 725 846 1130 1230 1520 2140
2019-10-11 03:30 3.06 1190 4620 (2010) 479 (1957) 1020 574 622 684 725 846 1130 1230 1520 2140
2019-10-11 02:30 3.06 1190 4620 (2010) 479 (1957) 1020 574 622 684 725 846 1130 1230 1520 2140
2019-10-11 01:30 3.05 1180 4620 (2010) 479 (1957) 1020 574 622 684 725 846 1130 1230 1520 2140
2019-10-11 00:30 3.04 1170 4620 (2010) 479 (1957) 1020 574 622 684 725 846 1130 1230 1520 2140
2019-10-10 23:30 3.06 1190 6750 (2010) 479 (1957) 1050 573 621 684 725 866 1150 1210 1590 2350
2019-10-10 22:30 3.03 1160 6750 (2010) 479 (1957) 1050 573 621 684 725 866 1150 1210 1590 2350
2019-10-10 21:30 3.02 1160 6750 (2010) 479 (1957) 1050 573 621 684 725 866 1150 1210 1590 2350
2019-10-10 20:30 3.02 1160 6750 (2010) 479 (1957) 1050 573 621 684 725 866 1150 1210 1590 2350
2019-10-10 19:30 2.95 1100 6750 (2010) 479 (1957) 1050 573 621 684 725 866 1150 1210 1590 2350
2019-10-10 18:30 3.02 1160 6750 (2010) 479 (1957) 1050 573 621 684 725 866 1150 1210 1590 2350
2019-10-10 17:30 3.02 1160 6750 (2010) 479 (1957) 1050 573 621 684 725 866 1150 1210 1590 2350
2019-10-10 16:30 3.02 1160 6750 (2010) 479 (1957) 1050 573 621 684 725 866 1150 1210 1590 2350
2019-10-10 15:30 3.02 1160 6750 (2010) 479 (1957) 1050 573 621 684 725 866 1150 1210 1590 2350
2019-10-10 14:30 3.02 1160 6750 (2010) 479 (1957) 1050 573 621 684 725 866 1150 1210 1590 2350
2019-10-10 13:30 3.02 1160 6750 (2010) 479 (1957) 1050 573 621 684 725 866 1150 1210 1590 2350
2019-10-10 12:30 3.02 1160 6750 (2010) 479 (1957) 1050 573 621 684 725 866 1150 1210 1590 2350
2019-10-10 11:30 3.01 1150 6750 (2010) 479 (1957) 1050 573 621 684 725 866 1150 1210 1590 2350
2019-10-10 10:30 3.02 1160 6750 (2010) 479 (1957) 1050 573 621 684 725 866 1150 1210 1590 2350
2019-10-10 09:30 3.03 1160 6750 (2010) 479 (1957) 1050 573 621 684 725 866 1150 1210 1590 2350
2019-10-10 08:30 3.02 1160 6750 (2010) 479 (1957) 1050 573 621 684 725 866 1150 1210 1590 2350
2019-10-10 07:30 3.02 1160 6750 (2010) 479 (1957) 1050 573 621 684 725 866 1150 1210 1590 2350
2019-10-10 06:30 3.03 1160 6750 (2010) 479 (1957) 1050 573 621 684 725 866 1150 1210 1590 2350
2019-10-10 05:30 3.03 1160 6750 (2010) 479 (1957) 1050 573 621 684 725 866 1150 1210 1590 2350
2019-10-10 04:30 3.02 1160 6750 (2010) 479 (1957) 1050 573 621 684 725 866 1150 1210 1590 2350
2019-10-10 03:30 3.03 1160 6750 (2010) 479 (1957) 1050 573 621 684 725 866 1150 1210 1590 2350
2019-10-10 02:30 3.03 1160 6750 (2010) 479 (1957) 1050 573 621 684 725 866 1150 1210 1590 2350
2019-10-10 01:30 3.03 1160 6750 (2010) 479 (1957) 1050 573 621 684 725 866 1150 1210 1590 2350
2019-10-10 00:30 3.03 1160 6750 (2010) 479 (1957) 1050 573 621 684 725 866 1150 1210 1590 2350
2019-10-09 23:30 3.04 1170 4570 (1937) 476 (1957) 1050 571 630 684 724 863 1140 1210 1700 2570
2019-10-09 22:30 3.03 1160 4570 (1937) 476 (1957) 1050 571 630 684 724 863 1140 1210 1700 2570
2019-10-09 21:30 3.03 1160 4570 (1937) 476 (1957) 1050 571 630 684 724 863 1140 1210 1700 2570
2019-10-09 20:30 3.04 1170 4570 (1937) 476 (1957) 1050 571 630 684 724 863 1140 1210 1700 2570
2019-10-09 19:30 3.03 1160 4570 (1937) 476 (1957) 1050 571 630 684 724 863 1140 1210 1700 2570
2019-10-09 18:30 3.04 1170 4570 (1937) 476 (1957) 1050 571 630 684 724 863 1140 1210 1700 2570
2019-10-09 17:30 3.04 1170 4570 (1937) 476 (1957) 1050 571 630 684 724 863 1140 1210 1700 2570
2019-10-09 16:30 3.04 1170 4570 (1937) 476 (1957) 1050 571 630 684 724 863 1140 1210 1700 2570
2019-10-09 15:30 3.03 1160 4570 (1937) 476 (1957) 1050 571 630 684 724 863 1140 1210 1700 2570
2019-10-09 14:30 3.04 1170 4570 (1937) 476 (1957) 1050 571 630 684 724 863 1140 1210 1700 2570
2019-10-09 13:30 3.04 1170 4570 (1937) 476 (1957) 1050 571 630 684 724 863 1140 1210 1700 2570
2019-10-09 12:30 3.05 1180 4570 (1937) 476 (1957) 1050 571 630 684 724 863 1140 1210 1700 2570
2019-10-09 11:30 3.05 1180 4570 (1937) 476 (1957) 1050 571 630 684 724 863 1140 1210 1700 2570
2019-10-09 10:30 3.05 1180 4570 (1937) 476 (1957) 1050 571 630 684 724 863 1140 1210 1700 2570
2019-10-09 09:30 3.05 1180 4570 (1937) 476 (1957) 1050 571 630 684 724 863 1140 1210 1700 2570
2019-10-09 08:30 3.05 1180 4570 (1937) 476 (1957) 1050 571 630 684 724 863 1140 1210 1700 2570
2019-10-09 07:30 3.05 1180 4570 (1937) 476 (1957) 1050 571 630 684 724 863 1140 1210 1700 2570
2019-10-09 06:30 3.06 1190 4570 (1937) 476 (1957) 1050 571 630 684 724 863 1140 1210 1700 2570
2019-10-09 05:30 3.06 1190 4570 (1937) 476 (1957) 1050 571 630 684 724 863 1140 1210 1700 2570
2019-10-09 04:30 3.06 1190 4570 (1937) 476 (1957) 1050 571 630 684 724 863 1140 1210 1700 2570
2019-10-09 03:30 3.07 1200 4570 (1937) 476 (1957) 1050 571 630 684 724 863 1140 1210 1700 2570
2019-10-09 02:30 3.06 1190 4570 (1937) 476 (1957) 1050 571 630 684 724 863 1140 1210 1700 2570
2019-10-09 01:30 3.07 1200 4570 (1937) 476 (1957) 1050 571 630 684 724 863 1140 1210 1700 2570
2019-10-09 00:30 3.07 1200 4570 (1937) 476 (1957) 1050 571 630 684 724 863 1140 1210 1700 2570
2019-10-08 23:30 3.07 1200 4660 (1931) 476 (1957) 1080 572 638 700 736 870 1180 1230 1690 2620
2019-10-08 22:30 3.07 1200 4660 (1931) 476 (1957) 1080 572 638 700 736 870 1180 1230 1690 2620
2019-10-08 21:30 3.08 1210 4660 (1931) 476 (1957) 1080 572 638 700 736 870 1180 1230 1690 2620
2019-10-08 20:30 3.07 1200 4660 (1931) 476 (1957) 1080 572 638 700 736 870 1180 1230 1690 2620
2019-10-08 19:30 3.07 1200 4660 (1931) 476 (1957) 1080 572 638 700 736 870 1180 1230 1690 2620
2019-10-08 18:30 3.08 1210 4660 (1931) 476 (1957) 1080 572 638 700 736 870 1180 1230 1690 2620
2019-10-08 17:30 3.08 1210 4660 (1931) 476 (1957) 1080 572 638 700 736 870 1180 1230 1690 2620
2019-10-08 16:30 3.08 1210 4660 (1931) 476 (1957) 1080 572 638 700 736 870 1180 1230 1690 2620
2019-10-08 15:30 3.07 1200 4660 (1931) 476 (1957) 1080 572 638 700 736 870 1180 1230 1690 2620
2019-10-08 14:30 3.07 1200 4660 (1931) 476 (1957) 1080 572 638 700 736 870 1180 1230 1690 2620
2019-10-08 13:30 3.07 1200 4660 (1931) 476 (1957) 1080 572 638 700 736 870 1180 1230 1690 2620
2019-10-08 12:30 3.07 1200 4660 (1931) 476 (1957) 1080 572 638 700 736 870 1180 1230 1690 2620
2019-10-08 11:30 3.08 1210 4660 (1931) 476 (1957) 1080 572 638 700 736 870 1180 1230 1690 2620
2019-10-08 10:30 3.08 1210 4660 (1931) 476 (1957) 1080 572 638 700 736 870 1180 1230 1690 2620
2019-10-08 09:30 3.08 1210 4660 (1931) 476 (1957) 1080 572 638 700 736 870 1180 1230 1690 2620
2019-10-08 08:30 3.08 1210 4660 (1931) 476 (1957) 1080 572 638 700 736 870 1180 1230 1690 2620
2019-10-08 07:30 3.09 1210 4660 (1931) 476 (1957) 1080 572 638 700 736 870 1180 1230 1690 2620
2019-10-08 06:30 3.09 1210 4660 (1931) 476 (1957) 1080 572 638 700 736 870 1180 1230 1690 2620
2019-10-08 05:30 3.09 1210 4660 (1931) 476 (1957) 1080 572 638 700 736 870 1180 1230 1690 2620
2019-10-08 04:30 3.09 1210 4660 (1931) 476 (1957) 1080 572 638 700 736 870 1180 1230 1690 2620
2019-10-08 03:30 3.11 1230 4660 (1931) 476 (1957) 1080 572 638 700 736 870 1180 1230 1690 2620
2019-10-08 02:30 3.11 1230 4660 (1931) 476 (1957) 1080 572 638 700 736 870 1180 1230 1690 2620
2019-10-08 01:30 3.10 1220 4660 (1931) 476 (1957) 1080 572 638 700 736 870 1180 1230 1690 2620
2019-10-08 00:30 3.11 1230 4660 (1931) 476 (1957) 1080 572 638 700 736 870 1180 1230 1690 2620
2019-10-07 23:30 3.11 1230 7620 (1999) 479 (1957) 1120 576 638 703 727 860 1160 1240 1770 2610
2019-10-07 22:30 3.12 1240 7620 (1999) 479 (1957) 1120 576 638 703 727 860 1160 1240 1770 2610
2019-10-07 21:30 3.13 1250 7620 (1999) 479 (1957) 1120 576 638 703 727 860 1160 1240 1770 2610
2019-10-07 20:30 3.12 1240 7620 (1999) 479 (1957) 1120 576 638 703 727 860 1160 1240 1770 2610
2019-10-07 19:30 3.12 1240 7620 (1999) 479 (1957) 1120 576 638 703 727 860 1160 1240 1770 2610
2019-10-07 18:30 3.13 1250 7620 (1999) 479 (1957) 1120 576 638 703 727 860 1160 1240 1770 2610
2019-10-07 17:30 3.14 1260 7620 (1999) 479 (1957) 1120 576 638 703 727 860 1160 1240 1770 2610
2019-10-07 16:30 3.14 1260 7620 (1999) 479 (1957) 1120 576 638 703 727 860 1160 1240 1770 2610
2019-10-07 15:30 3.15 1260 7620 (1999) 479 (1957) 1120 576 638 703 727 860 1160 1240 1770 2610
2019-10-07 14:30 3.16 1270 7620 (1999) 479 (1957) 1120 576 638 703 727 860 1160 1240 1770 2610
2019-10-07 13:30 3.15 1260 7620 (1999) 479 (1957) 1120 576 638 703 727 860 1160 1240 1770 2610
2019-10-07 12:30 3.15 1260 7620 (1999) 479 (1957) 1120 576 638 703 727 860 1160 1240 1770 2610
2019-10-07 11:30 3.16 1270 7620 (1999) 479 (1957) 1120 576 638 703 727 860 1160 1240 1770 2610
2019-10-07 10:30 3.16 1270 7620 (1999) 479 (1957) 1120 576 638 703 727 860 1160 1240 1770 2610
2019-10-07 09:30 3.16 1270 7620 (1999) 479 (1957) 1120 576 638 703 727 860 1160 1240 1770 2610
2019-10-07 08:30 3.15 1260 7620 (1999) 479 (1957) 1120 576 638 703 727 860 1160 1240 1770 2610
2019-10-07 07:30 3.15 1260 7620 (1999) 479 (1957) 1120 576 638 703 727 860 1160 1240 1770 2610
2019-10-07 06:30 3.15 1260 7620 (1999) 479 (1957) 1120 576 638 703 727 860 1160 1240 1770 2610
2019-10-07 05:30 3.14 1260 7620 (1999) 479 (1957) 1120 576 638 703 727 860 1160 1240 1770 2610
2019-10-07 04:30 3.14 1260 7620 (1999) 479 (1957) 1120 576 638 703 727 860 1160 1240 1770 2610
2019-10-07 03:30 3.14 1260 7620 (1999) 479 (1957) 1120 576 638 703 727 860 1160 1240 1770 2610
2019-10-07 02:30 3.14 1260 7620 (1999) 479 (1957) 1120 576 638 703 727 860 1160 1240 1770 2610
2019-10-07 01:30 3.14 1260 7620 (1999) 479 (1957) 1120 576 638 703 727 860 1160 1240 1770 2610
2019-10-07 00:30 3.12 1240 7620 (1999) 479 (1957) 1120 576 638 703 727 860 1160 1240 1770 2610

A total of 171 rows are displayed for years 1922 through 2018.

Trips for Current River (Missouri), Van Buren (07067000)

DateStartEndDistanceConditionDischargeHeightFishingDetails
Click for details2012-08-04 Waymeyer Van Buren Total trip distance: 11.5 miles7.2 Good 707 1.92 None NoneNone Bowe, Michelle
Edmond, Alex
Edmond, Brian
Edmond, Jim
Edmond, Joseph
Edmond, Julian
Edmond, Shirlee
Houseworth, Bart
Houseworth, Julie
Houseworth, Owen
Houseworth, Wyatt
Bowe, Michelle; Edmond, Alex; Edmond, Brian; Edmond, Jim; Edmond, Joseph; Edmond, Julian; Edmond, Shirlee; Houseworth, Bart; Houseworth, Julie; Houseworth, Owen; Houseworth, Wyatt
The river was very crowded with other floaters, tubers, and motor boats. This stretch was not particularly scenic and fairly slow.The river was very crowded with other floaters, tubers, and motor boats.  This stretch was not particularly scenic and fairly slow. USGS Gauge Data:
Van Buren (07067000)
Discharge: 707
Height: 1.92
<b>USGS Gauge Data:</b></br />Van Buren (07067000)<br />Discharge: 707<br />Height: 1.92
Source: EdmondSource: Edmond
Click for details2012-08-04 Van Buren Big Spring Total trip distance: 11.5 miles4.3 Good 707 1.92 None NoneNone Edmond, Brian
Houseworth, Bart
Edmond, Brian; Houseworth, Bart
This stretch was not scenic but the crowding was greatly diminished. One spring was noted on the east bank.This stretch was not scenic but the crowding was greatly diminished.  One spring was noted on the east bank. USGS Gauge Data:
Van Buren (07067000)
Discharge: 707
Height: 1.92
<b>USGS Gauge Data:</b></br />Van Buren (07067000)<br />Discharge: 707<br />Height: 1.92
Source: EdmondSource: Edmond

A total of 2 rows are displayed.

Trip Summary for Current River (Missouri), Van Buren (07067000)

Miles11.5
Trips1
People11
Dates1
Years1
Months1
Rows2
Sources1

Condition Descriptions

Fishing Conditions

Fish Species

Notes

Classic Trip List

The classic River Trips application is still available for use. It is updated with the new system using a data retrofit. It is no longer maintained. The original River Trips application is no longer updated (as of 1 Dec 2016) but can be checked for errors or for the condition of the data before it was converted to the new system.